sensor_id;sensor_type;location;lat;lon;timestamp;P1;durP1;ratioP1;P2;durP2;ratioP2
37065;SDS011;22981;43.080;25.550;2022-10-29T00:00:40;9.88;;;6.53;;
37065;SDS011;22981;43.080;25.550;2022-10-29T00:03:08;14.20;;;10.70;;
37065;SDS011;22981;43.080;25.550;2022-10-29T00:05:36;14.33;;;12.63;;
37065;SDS011;22981;43.080;25.550;2022-10-29T00:08:04;16.60;;;13.80;;
37065;SDS011;22981;43.080;25.550;2022-10-29T00:10:31;17.17;;;12.07;;
37065;SDS011;22981;43.080;25.550;2022-10-29T00:13:00;17.42;;;14.98;;
37065;SDS011;22981;43.080;25.550;2022-10-29T00:15:28;14.58;;;11.63;;
37065;SDS011;22981;43.080;25.550;2022-10-29T00:17:55;10.28;;;6.90;;
37065;SDS011;22981;43.080;25.550;2022-10-29T00:20:23;9.48;;;5.90;;
37065;SDS011;22981;43.080;25.550;2022-10-29T00:22:53;7.70;;;6.30;;
37065;SDS011;22981;43.080;25.550;2022-10-29T00:25:21;8.78;;;5.75;;
37065;SDS011;22981;43.080;25.550;2022-10-29T00:27:48;6.90;;;5.95;;
37065;SDS011;22981;43.080;25.550;2022-10-29T00:30:16;11.35;;;6.40;;
37065;SDS011;22981;43.080;25.550;2022-10-29T00:32:43;10.88;;;6.67;;
37065;SDS011;22981;43.080;25.550;2022-10-29T00:35:11;10.35;;;6.78;;
37065;SDS011;22981;43.080;25.550;2022-10-29T00:37:39;8.30;;;6.25;;
37065;SDS011;22981;43.080;25.550;2022-10-29T00:40:07;8.88;;;6.70;;
37065;SDS011;22981;43.080;25.550;2022-10-29T00:42:35;10.55;;;7.30;;
37065;SDS011;22981;43.080;25.550;2022-10-29T00:45:03;10.78;;;7.42;;
37065;SDS011;22981;43.080;25.550;2022-10-29T00:47:33;9.63;;;7.20;;
37065;SDS011;22981;43.080;25.550;2022-10-29T00:50:02;9.98;;;7.10;;
37065;SDS011;22981;43.080;25.550;2022-10-29T00:52:32;9.83;;;6.42;;
37065;SDS011;22981;43.080;25.550;2022-10-29T00:55:02;9.00;;;6.28;;
37065;SDS011;22981;43.080;25.550;2022-10-29T00:57:34;9.75;;;6.50;;
37065;SDS011;22981;43.080;25.550;2022-10-29T01:00:06;8.60;;;6.37;;
37065;SDS011;22981;43.080;25.550;2022-10-29T01:02:34;10.18;;;6.83;;
37065;SDS011;22981;43.080;25.550;2022-10-29T01:05:03;10.82;;;7.45;;
37065;SDS011;22981;43.080;25.550;2022-10-29T01:07:32;10.25;;;7.28;;
37065;SDS011;22981;43.080;25.550;2022-10-29T01:10:00;12.65;;;7.92;;
37065;SDS011;22981;43.080;25.550;2022-10-29T01:12:31;10.40;;;7.00;;
37065;SDS011;22981;43.080;25.550;2022-10-29T01:20:45;10.48;;;7.35;;
37065;SDS011;22981;43.080;25.550;2022-10-29T01:31:37;13.32;;;6.67;;
37065;SDS011;22981;43.080;25.550;2022-10-29T01:34:23;10.65;;;8.13;;
37065;SDS011;22981;43.080;25.550;2022-10-29T01:37:02;15.72;;;10.10;;
37065;SDS011;22981;43.080;25.550;2022-10-29T01:39:42;17.67;;;10.28;;
37065;SDS011;22981;43.080;25.550;2022-10-29T01:47:36;13.28;;;9.43;;
37065;SDS011;22981;43.080;25.550;2022-10-29T01:50:06;15.60;;;10.35;;
37065;SDS011;22981;43.080;25.550;2022-10-29T01:52:36;16.12;;;9.35;;
37065;SDS011;22981;43.080;25.550;2022-10-29T01:55:05;13.25;;;9.35;;
37065;SDS011;22981;43.080;25.550;2022-10-29T01:57:35;8.98;;;7.45;;
37065;SDS011;22981;43.080;25.550;2022-10-29T02:00:17;12.88;;;10.32;;
37065;SDS011;22981;43.080;25.550;2022-10-29T02:08:35;11.28;;;6.85;;
37065;SDS011;22981;43.080;25.550;2022-10-29T02:13:40;9.00;;;5.40;;
37065;SDS011;22981;43.080;25.550;2022-10-29T02:16:09;6.80;;;5.95;;
37065;SDS011;22981;43.080;25.550;2022-10-29T02:18:45;7.37;;;6.10;;
37065;SDS011;22981;43.080;25.550;2022-10-29T02:21:09;8.38;;;5.62;;
37065;SDS011;22981;43.080;25.550;2022-10-29T02:23:38;9.98;;;6.50;;
37065;SDS011;22981;43.080;25.550;2022-10-29T02:26:06;15.43;;;11.68;;
37065;SDS011;22981;43.080;25.550;2022-10-29T02:28:33;15.88;;;10.55;;
37065;SDS011;22981;43.080;25.550;2022-10-29T02:31:01;14.05;;;9.40;;
37065;SDS011;22981;43.080;25.550;2022-10-29T02:33:29;17.05;;;11.65;;
37065;SDS011;22981;43.080;25.550;2022-10-29T02:35:56;16.15;;;11.05;;
37065;SDS011;22981;43.080;25.550;2022-10-29T02:38:24;15.32;;;10.98;;
37065;SDS011;22981;43.080;25.550;2022-10-29T02:40:51;13.70;;;9.90;;
37065;SDS011;22981;43.080;25.550;2022-10-29T02:43:19;13.98;;;10.05;;
37065;SDS011;22981;43.080;25.550;2022-10-29T02:45:47;15.95;;;9.73;;
37065;SDS011;22981;43.080;25.550;2022-10-29T02:48:15;12.10;;;8.98;;
37065;SDS011;22981;43.080;25.550;2022-10-29T02:50:43;10.45;;;7.05;;
37065;SDS011;22981;43.080;25.550;2022-10-29T02:53:10;9.83;;;7.45;;
37065;SDS011;22981;43.080;25.550;2022-10-29T02:55:38;11.45;;;7.30;;
37065;SDS011;22981;43.080;25.550;2022-10-29T02:58:05;11.48;;;7.92;;
37065;SDS011;22981;43.080;25.550;2022-10-29T03:00:33;10.80;;;6.92;;
37065;SDS011;22981;43.080;25.550;2022-10-29T03:03:00;9.88;;;6.00;;
37065;SDS011;22981;43.080;25.550;2022-10-29T03:05:28;10.53;;;5.72;;
37065;SDS011;22981;43.080;25.550;2022-10-29T03:07:55;6.15;;;5.22;;
37065;SDS011;22981;43.080;25.550;2022-10-29T03:10:23;10.08;;;6.55;;
37065;SDS011;22981;43.080;25.550;2022-10-29T03:12:50;10.10;;;7.72;;
37065;SDS011;22981;43.080;25.550;2022-10-29T03:15:18;10.20;;;7.65;;
37065;SDS011;22981;43.080;25.550;2022-10-29T03:17:45;12.30;;;8.60;;
37065;SDS011;22981;43.080;25.550;2022-10-29T03:20:13;12.82;;;10.32;;
37065;SDS011;22981;43.080;25.550;2022-10-29T03:22:40;8.98;;;7.50;;
37065;SDS011;22981;43.080;25.550;2022-10-29T03:25:08;15.23;;;11.03;;
37065;SDS011;22981;43.080;25.550;2022-10-29T03:27:39;44.63;;;26.65;;
37065;SDS011;22981;43.080;25.550;2022-10-29T03:30:08;38.40;;;23.80;;
37065;SDS011;22981;43.080;25.550;2022-10-29T03:32:40;23.90;;;16.55;;
37065;SDS011;22981;43.080;25.550;2022-10-29T03:35:09;12.85;;;9.68;;
37065;SDS011;22981;43.080;25.550;2022-10-29T03:37:38;15.15;;;10.32;;
37065;SDS011;22981;43.080;25.550;2022-10-29T03:40:06;36.88;;;30.10;;
37065;SDS011;22981;43.080;25.550;2022-10-29T03:42:35;24.20;;;19.65;;
37065;SDS011;22981;43.080;25.550;2022-10-29T03:45:04;20.10;;;14.98;;
37065;SDS011;22981;43.080;25.550;2022-10-29T03:47:32;9.98;;;7.50;;
37065;SDS011;22981;43.080;25.550;2022-10-29T03:50:00;13.90;;;9.85;;
37065;SDS011;22981;43.080;25.550;2022-10-29T03:52:28;14.60;;;10.70;;
37065;SDS011;22981;43.080;25.550;2022-10-29T03:54:56;13.85;;;10.28;;
37065;SDS011;22981;43.080;25.550;2022-10-29T03:57:23;13.03;;;10.10;;
37065;SDS011;22981;43.080;25.550;2022-10-29T03:59:51;12.78;;;9.68;;
37065;SDS011;22981;43.080;25.550;2022-10-29T04:02:18;13.65;;;11.05;;
37065;SDS011;22981;43.080;25.550;2022-10-29T04:04:46;20.10;;;13.78;;
37065;SDS011;22981;43.080;25.550;2022-10-29T04:07:14;12.47;;;8.83;;
37065;SDS011;22981;43.080;25.550;2022-10-29T04:09:41;11.90;;;8.65;;
37065;SDS011;22981;43.080;25.550;2022-10-29T04:12:09;14.50;;;9.90;;
37065;SDS011;22981;43.080;25.550;2022-10-29T04:14:36;11.10;;;8.98;;
37065;SDS011;22981;43.080;25.550;2022-10-29T04:17:04;12.70;;;8.88;;
37065;SDS011;22981;43.080;25.550;2022-10-29T04:19:31;15.10;;;10.78;;
37065;SDS011;22981;43.080;25.550;2022-10-29T04:21:59;20.52;;;11.63;;
37065;SDS011;22981;43.080;25.550;2022-10-29T04:24:26;16.45;;;11.65;;
37065;SDS011;22981;43.080;25.550;2022-10-29T04:26:54;10.80;;;7.67;;
37065;SDS011;22981;43.080;25.550;2022-10-29T04:29:21;9.83;;;6.75;;
37065;SDS011;22981;43.080;25.550;2022-10-29T04:31:49;8.63;;;6.70;;
37065;SDS011;22981;43.080;25.550;2022-10-29T04:34:17;9.40;;;7.90;;
37065;SDS011;22981;43.080;25.550;2022-10-29T04:36:44;10.63;;;7.58;;
37065;SDS011;22981;43.080;25.550;2022-10-29T04:39:12;10.30;;;8.50;;
37065;SDS011;22981;43.080;25.550;2022-10-29T04:41:39;9.13;;;8.00;;
37065;SDS011;22981;43.080;25.550;2022-10-29T04:44:07;11.63;;;9.43;;
37065;SDS011;22981;43.080;25.550;2022-10-29T04:46:34;20.17;;;10.75;;
37065;SDS011;22981;43.080;25.550;2022-10-29T04:49:02;18.80;;;13.48;;
37065;SDS011;22981;43.080;25.550;2022-10-29T04:51:30;17.82;;;13.80;;
37065;SDS011;22981;43.080;25.550;2022-10-29T04:53:57;15.70;;;11.18;;
37065;SDS011;22981;43.080;25.550;2022-10-29T04:56:25;13.38;;;10.05;;
37065;SDS011;22981;43.080;25.550;2022-10-29T04:58:52;17.02;;;11.28;;
37065;SDS011;22981;43.080;25.550;2022-10-29T05:01:20;24.27;;;10.72;;
37065;SDS011;22981;43.080;25.550;2022-10-29T05:03:48;18.02;;;10.75;;
37065;SDS011;22981;43.080;25.550;2022-10-29T05:06:15;20.70;;;13.53;;
37065;SDS011;22981;43.080;25.550;2022-10-29T05:08:43;21.73;;;16.35;;
37065;SDS011;22981;43.080;25.550;2022-10-29T05:11:10;30.45;;;22.82;;
37065;SDS011;22981;43.080;25.550;2022-10-29T05:13:38;15.05;;;11.90;;
37065;SDS011;22981;43.080;25.550;2022-10-29T05:16:06;16.60;;;10.82;;
37065;SDS011;22981;43.080;25.550;2022-10-29T05:18:33;11.73;;;10.28;;
37065;SDS011;22981;43.080;25.550;2022-10-29T05:21:02;15.65;;;13.40;;
37065;SDS011;22981;43.080;25.550;2022-10-29T05:23:29;16.48;;;11.05;;
37065;SDS011;22981;43.080;25.550;2022-10-29T05:25:57;15.00;;;9.33;;
37065;SDS011;22981;43.080;25.550;2022-10-29T05:28:24;10.80;;;8.65;;
37065;SDS011;22981;43.080;25.550;2022-10-29T05:30:52;15.05;;;10.23;;
37065;SDS011;22981;43.080;25.550;2022-10-29T05:33:21;16.67;;;9.80;;
37065;SDS011;22981;43.080;25.550;2022-10-29T05:35:49;17.45;;;11.25;;
37065;SDS011;22981;43.080;25.550;2022-10-29T05:38:17;19.32;;;10.08;;
37065;SDS011;22981;43.080;25.550;2022-10-29T05:40:45;26.33;;;12.68;;
37065;SDS011;22981;43.080;25.550;2022-10-29T05:43:17;26.60;;;16.70;;
37065;SDS011;22981;43.080;25.550;2022-10-29T05:45:42;25.15;;;16.85;;
37065;SDS011;22981;43.080;25.550;2022-10-29T05:48:10;24.15;;;15.13;;
37065;SDS011;22981;43.080;25.550;2022-10-29T05:50:38;26.30;;;18.30;;
37065;SDS011;22981;43.080;25.550;2022-10-29T05:53:06;26.55;;;17.98;;
37065;SDS011;22981;43.080;25.550;2022-10-29T05:55:36;28.32;;;15.88;;
37065;SDS011;22981;43.080;25.550;2022-10-29T05:58:05;16.52;;;11.65;;
37065;SDS011;22981;43.080;25.550;2022-10-29T06:00:35;22.77;;;14.00;;
37065;SDS011;22981;43.080;25.550;2022-10-29T06:03:14;18.75;;;14.43;;
37065;SDS011;22981;43.080;25.550;2022-10-29T06:05:44;22.35;;;15.23;;
37065;SDS011;22981;43.080;25.550;2022-10-29T06:08:12;19.98;;;14.83;;
37065;SDS011;22981;43.080;25.550;2022-10-29T06:10:40;18.02;;;14.43;;
37065;SDS011;22981;43.080;25.550;2022-10-29T06:13:08;20.23;;;14.30;;
37065;SDS011;22981;43.080;25.550;2022-10-29T06:15:37;24.32;;;15.90;;
37065;SDS011;22981;43.080;25.550;2022-10-29T06:18:05;23.35;;;16.02;;
37065;SDS011;22981;43.080;25.550;2022-10-29T06:20:34;22.40;;;16.95;;
37065;SDS011;22981;43.080;25.550;2022-10-29T06:23:02;19.67;;;15.78;;
37065;SDS011;22981;43.080;25.550;2022-10-29T06:25:30;20.82;;;16.42;;
37065;SDS011;22981;43.080;25.550;2022-10-29T06:27:58;22.27;;;14.40;;
37065;SDS011;22981;43.080;25.550;2022-10-29T06:30:27;24.45;;;15.30;;
37065;SDS011;22981;43.080;25.550;2022-10-29T06:32:55;21.33;;;15.32;;
37065;SDS011;22981;43.080;25.550;2022-10-29T06:35:23;21.50;;;14.25;;
37065;SDS011;22981;43.080;25.550;2022-10-29T06:37:51;22.22;;;15.35;;
37065;SDS011;22981;43.080;25.550;2022-10-29T06:40:18;20.08;;;11.90;;
37065;SDS011;22981;43.080;25.550;2022-10-29T06:42:46;14.15;;;10.43;;
37065;SDS011;22981;43.080;25.550;2022-10-29T06:45:14;15.25;;;11.40;;
37065;SDS011;22981;43.080;25.550;2022-10-29T06:47:42;12.53;;;10.28;;
37065;SDS011;22981;43.080;25.550;2022-10-29T06:50:11;13.98;;;10.45;;
37065;SDS011;22981;43.080;25.550;2022-10-29T06:52:39;12.53;;;9.83;;
37065;SDS011;22981;43.080;25.550;2022-10-29T06:55:07;21.23;;;10.32;;
37065;SDS011;22981;43.080;25.550;2022-10-29T06:57:35;11.30;;;9.40;;
37065;SDS011;22981;43.080;25.550;2022-10-29T07:00:02;15.45;;;9.15;;
37065;SDS011;22981;43.080;25.550;2022-10-29T07:02:31;10.25;;;8.40;;
37065;SDS011;22981;43.080;25.550;2022-10-29T07:04:58;11.40;;;8.85;;
37065;SDS011;22981;43.080;25.550;2022-10-29T07:07:26;13.25;;;9.68;;
37065;SDS011;22981;43.080;25.550;2022-10-29T07:09:54;13.20;;;9.18;;
37065;SDS011;22981;43.080;25.550;2022-10-29T07:12:22;15.15;;;10.50;;
37065;SDS011;22981;43.080;25.550;2022-10-29T07:14:50;16.23;;;10.10;;
37065;SDS011;22981;43.080;25.550;2022-10-29T07:17:17;13.00;;;11.22;;
37065;SDS011;22981;43.080;25.550;2022-10-29T07:19:45;17.32;;;11.68;;
37065;SDS011;22981;43.080;25.550;2022-10-29T07:22:13;18.52;;;11.57;;
37065;SDS011;22981;43.080;25.550;2022-10-29T07:24:40;13.98;;;11.12;;
37065;SDS011;22981;43.080;25.550;2022-10-29T07:27:08;12.07;;;8.75;;
37065;SDS011;22981;43.080;25.550;2022-10-29T07:29:35;11.43;;;8.55;;
37065;SDS011;22981;43.080;25.550;2022-10-29T07:32:04;11.90;;;8.83;;
37065;SDS011;22981;43.080;25.550;2022-10-29T07:34:32;18.95;;;12.58;;
37065;SDS011;22981;43.080;25.550;2022-10-29T07:36:59;15.50;;;8.45;;
37065;SDS011;22981;43.080;25.550;2022-10-29T07:39:27;11.73;;;8.68;;
37065;SDS011;22981;43.080;25.550;2022-10-29T07:41:55;11.03;;;7.72;;
37065;SDS011;22981;43.080;25.550;2022-10-29T07:44:22;11.28;;;8.68;;
37065;SDS011;22981;43.080;25.550;2022-10-29T07:46:50;11.28;;;7.10;;
37065;SDS011;22981;43.080;25.550;2022-10-29T07:49:17;14.00;;;7.22;;
37065;SDS011;22981;43.080;25.550;2022-10-29T07:51:46;13.00;;;7.20;;
37065;SDS011;22981;43.080;25.550;2022-10-29T07:54:14;15.10;;;11.28;;
37065;SDS011;22981;43.080;25.550;2022-10-29T07:56:41;12.98;;;6.90;;
37065;SDS011;22981;43.080;25.550;2022-10-29T07:59:09;11.00;;;6.80;;
37065;SDS011;22981;43.080;25.550;2022-10-29T08:01:38;13.85;;;6.75;;
37065;SDS011;22981;43.080;25.550;2022-10-29T08:04:06;8.10;;;6.65;;
37065;SDS011;22981;43.080;25.550;2022-10-29T08:06:33;7.15;;;6.12;;
37065;SDS011;22981;43.080;25.550;2022-10-29T08:09:01;8.38;;;6.65;;
37065;SDS011;22981;43.080;25.550;2022-10-29T08:11:32;13.83;;;8.30;;
37065;SDS011;22981;43.080;25.550;2022-10-29T08:13:59;7.40;;;5.80;;
37065;SDS011;22981;43.080;25.550;2022-10-29T08:16:27;9.73;;;5.87;;
37065;SDS011;22981;43.080;25.550;2022-10-29T08:18:55;21.07;;;6.05;;
37065;SDS011;22981;43.080;25.550;2022-10-29T08:21:22;10.25;;;5.67;;
37065;SDS011;22981;43.080;25.550;2022-10-29T08:23:50;8.60;;;6.10;;
37065;SDS011;22981;43.080;25.550;2022-10-29T08:26:18;10.63;;;5.50;;
37065;SDS011;22981;43.080;25.550;2022-10-29T08:28:46;7.67;;;5.30;;
37065;SDS011;22981;43.080;25.550;2022-10-29T08:31:13;11.08;;;5.60;;
37065;SDS011;22981;43.080;25.550;2022-10-29T08:33:41;7.97;;;5.42;;
37065;SDS011;22981;43.080;25.550;2022-10-29T08:36:08;8.95;;;5.17;;
37065;SDS011;22981;43.080;25.550;2022-10-29T08:38:36;7.70;;;5.22;;
37065;SDS011;22981;43.080;25.550;2022-10-29T08:44:02;7.72;;;5.60;;
37065;SDS011;22981;43.080;25.550;2022-10-29T08:46:43;10.15;;;5.78;;
37065;SDS011;22981;43.080;25.550;2022-10-29T08:49:16;9.08;;;4.22;;
37065;SDS011;22981;43.080;25.550;2022-10-29T08:54:39;8.63;;;4.40;;
37065;SDS011;22981;43.080;25.550;2022-10-29T08:57:17;6.78;;;4.17;;
37065;SDS011;22981;43.080;25.550;2022-10-29T08:59:45;7.40;;;4.03;;
37065;SDS011;22981;43.080;25.550;2022-10-29T09:02:18;7.12;;;3.92;;
37065;SDS011;22981;43.080;25.550;2022-10-29T09:04:43;5.95;;;3.80;;
37065;SDS011;22981;43.080;25.550;2022-10-29T09:31:46;4.45;;;3.00;;
37065;SDS011;22981;43.080;25.550;2022-10-29T09:34:17;3.98;;;2.55;;
37065;SDS011;22981;43.080;25.550;2022-10-29T09:36:47;9.30;;;4.33;;
37065;SDS011;22981;43.080;25.550;2022-10-29T09:39:15;5.12;;;3.00;;
37065;SDS011;22981;43.080;25.550;2022-10-29T09:41:52;5.15;;;2.67;;
37065;SDS011;22981;43.080;25.550;2022-10-29T09:44:22;8.93;;;3.80;;
37065;SDS011;22981;43.080;25.550;2022-10-29T09:47:02;8.80;;;5.70;;
37065;SDS011;22981;43.080;25.550;2022-10-29T09:52:15;8.58;;;4.08;;
37065;SDS011;22981;43.080;25.550;2022-10-29T09:54:45;4.47;;;3.50;;
37065;SDS011;22981;43.080;25.550;2022-10-29T09:57:28;6.25;;;2.80;;
37065;SDS011;22981;43.080;25.550;2022-10-29T09:59:57;4.03;;;2.20;;
37065;SDS011;22981;43.080;25.550;2022-10-29T10:02:36;3.47;;;2.58;;
37065;SDS011;22981;43.080;25.550;2022-10-29T10:07:41;3.77;;;2.65;;
37065;SDS011;22981;43.080;25.550;2022-10-29T10:10:21;3.67;;;2.75;;
37065;SDS011;22981;43.080;25.550;2022-10-29T10:12:49;3.67;;;2.80;;
37065;SDS011;22981;43.080;25.550;2022-10-29T10:15:18;4.35;;;2.37;;
37065;SDS011;22981;43.080;25.550;2022-10-29T10:17:55;3.45;;;2.50;;
37065;SDS011;22981;43.080;25.550;2022-10-29T10:20:31;4.85;;;2.87;;
37065;SDS011;22981;43.080;25.550;2022-10-29T10:23:00;4.72;;;2.33;;
37065;SDS011;22981;43.080;25.550;2022-10-29T10:25:36;3.98;;;2.95;;
37065;SDS011;22981;43.080;25.550;2022-10-29T10:28:15;4.65;;;2.80;;
37065;SDS011;22981;43.080;25.550;2022-10-29T10:33:34;6.15;;;3.22;;
37065;SDS011;22981;43.080;25.550;2022-10-29T10:36:09;4.30;;;2.20;;
37065;SDS011;22981;43.080;25.550;2022-10-29T10:38:42;4.67;;;2.20;;
37065;SDS011;22981;43.080;25.550;2022-10-29T10:41:14;5.33;;;2.30;;
37065;SDS011;22981;43.080;25.550;2022-10-29T10:43:44;5.20;;;2.70;;
37065;SDS011;22981;43.080;25.550;2022-10-29T10:46:21;3.75;;;2.40;;
37065;SDS011;22981;43.080;25.550;2022-10-29T10:48:56;6.15;;;2.08;;
37065;SDS011;22981;43.080;25.550;2022-10-29T10:51:26;4.00;;;2.20;;
37065;SDS011;22981;43.080;25.550;2022-10-29T10:53:59;3.10;;;2.00;;
37065;SDS011;22981;43.080;25.550;2022-10-29T10:56:29;8.05;;;1.98;;
37065;SDS011;22981;43.080;25.550;2022-10-29T10:58:59;3.42;;;1.90;;
37065;SDS011;22981;43.080;25.550;2022-10-29T11:04:08;5.05;;;1.98;;
37065;SDS011;22981;43.080;25.550;2022-10-29T11:06:41;3.50;;;2.47;;
37065;SDS011;22981;43.080;25.550;2022-10-29T11:12:01;6.67;;;4.10;;
37065;SDS011;22981;43.080;25.550;2022-10-29T11:14:56;7.25;;;3.52;;
37065;SDS011;22981;43.080;25.550;2022-10-29T11:17:25;4.33;;;2.50;;
37065;SDS011;22981;43.080;25.550;2022-10-29T11:19:55;5.62;;;2.40;;
37065;SDS011;22981;43.080;25.550;2022-10-29T11:22:32;3.25;;;2.22;;
37065;SDS011;22981;43.080;25.550;2022-10-29T11:25:07;7.20;;;5.40;;
37065;SDS011;22981;43.080;25.550;2022-10-29T11:30:26;3.90;;;2.75;;
37065;SDS011;22981;43.080;25.550;2022-10-29T11:33:17;2.67;;;2.10;;
37065;SDS011;22981;43.080;25.550;2022-10-29T11:35:59;5.72;;;2.80;;
37065;SDS011;22981;43.080;25.550;2022-10-29T11:38:41;54.95;;;5.03;;
37065;SDS011;22981;43.080;25.550;2022-10-29T11:41:24;46.28;;;5.87;;
37065;SDS011;22981;43.080;25.550;2022-10-29T11:44:14;6.83;;;2.72;;
37065;SDS011;22981;43.080;25.550;2022-10-29T11:46:43;9.98;;;6.22;;
37065;SDS011;22981;43.080;25.550;2022-10-29T11:52:13;4.42;;;2.37;;
37065;SDS011;22981;43.080;25.550;2022-10-29T12:00:01;4.60;;;2.80;;
37065;SDS011;22981;43.080;25.550;2022-10-29T12:02:51;4.45;;;3.05;;
37065;SDS011;22981;43.080;25.550;2022-10-29T12:18:52;5.73;;;2.67;;
37065;SDS011;22981;43.080;25.550;2022-10-29T12:21:24;3.52;;;2.30;;
37065;SDS011;22981;43.080;25.550;2022-10-29T12:26:39;5.50;;;3.75;;
37065;SDS011;22981;43.080;25.550;2022-10-29T12:32:14;4.47;;;2.33;;
37065;SDS011;22981;43.080;25.550;2022-10-29T12:34:46;3.15;;;1.80;;
37065;SDS011;22981;43.080;25.550;2022-10-29T12:37:16;3.77;;;1.60;;
37065;SDS011;22981;43.080;25.550;2022-10-29T12:42:35;5.22;;;3.08;;
37065;SDS011;22981;43.080;25.550;2022-10-29T12:47:48;4.15;;;2.37;;
37065;SDS011;22981;43.080;25.550;2022-10-29T12:50:21;5.92;;;2.05;;
37065;SDS011;22981;43.080;25.550;2022-10-29T12:55:52;2.77;;;1.60;;
37065;SDS011;22981;43.080;25.550;2022-10-29T13:06:47;2.33;;;1.60;;
37065;SDS011;22981;43.080;25.550;2022-10-29T13:09:26;3.62;;;1.62;;
37065;SDS011;22981;43.080;25.550;2022-10-29T13:12:01;3.92;;;1.90;;
37065;SDS011;22981;43.080;25.550;2022-10-29T13:14:43;2.75;;;1.70;;
37065;SDS011;22981;43.080;25.550;2022-10-29T13:17:24;6.20;;;1.72;;
37065;SDS011;22981;43.080;25.550;2022-10-29T13:20:17;2.60;;;1.50;;
37065;SDS011;22981;43.080;25.550;2022-10-29T13:30:42;4.45;;;1.90;;
37065;SDS011;22981;43.080;25.550;2022-10-29T13:35:54;3.02;;;1.92;;
37065;SDS011;22981;43.080;25.550;2022-10-29T13:41:18;3.85;;;1.90;;
37065;SDS011;22981;43.080;25.550;2022-10-29T13:44:10;5.55;;;1.85;;
37065;SDS011;22981;43.080;25.550;2022-10-29T13:47:18;3.23;;;1.63;;
37065;SDS011;22981;43.080;25.550;2022-10-29T13:49:23;3.58;;;1.77;;
37065;SDS011;22981;43.080;25.550;2022-10-29T13:54:34;2.15;;;1.60;;
37065;SDS011;22981;43.080;25.550;2022-10-29T14:05:20;5.83;;;2.13;;
37065;SDS011;22981;43.080;25.550;2022-10-29T14:13:30;5.25;;;2.30;;
37065;SDS011;22981;43.080;25.550;2022-10-29T14:18:37;4.67;;;2.30;;
37065;SDS011;22981;43.080;25.550;2022-10-29T14:23:56;4.70;;;2.08;;
37065;SDS011;22981;43.080;25.550;2022-10-29T14:26:27;4.60;;;2.08;;
37065;SDS011;22981;43.080;25.550;2022-10-29T14:28:55;2.02;;;1.70;;
37065;SDS011;22981;43.080;25.550;2022-10-29T14:31:41;3.72;;;1.47;;
37065;SDS011;22981;43.080;25.550;2022-10-29T14:34:22;3.50;;;1.92;;
37065;SDS011;22981;43.080;25.550;2022-10-29T14:36:55;4.75;;;2.33;;
37065;SDS011;22981;43.080;25.550;2022-10-29T14:39:26;3.87;;;2.10;;
37065;SDS011;22981;43.080;25.550;2022-10-29T14:41:56;4.92;;;2.40;;
37065;SDS011;22981;43.080;25.550;2022-10-29T14:47:04;29.77;;;18.65;;
37065;SDS011;22981;43.080;25.550;2022-10-29T14:49:31;16.93;;;9.55;;
37065;SDS011;22981;43.080;25.550;2022-10-29T14:52:02;10.65;;;6.53;;
37065;SDS011;22981;43.080;25.550;2022-10-29T14:54:32;4.22;;;3.10;;
37065;SDS011;22981;43.080;25.550;2022-10-29T14:57:02;5.42;;;3.00;;
37065;SDS011;22981;43.080;25.550;2022-10-29T14:59:35;4.60;;;3.27;;
37065;SDS011;22981;43.080;25.550;2022-10-29T15:02:04;4.85;;;3.00;;
37065;SDS011;22981;43.080;25.550;2022-10-29T15:04:33;4.45;;;2.70;;
37065;SDS011;22981;43.080;25.550;2022-10-29T15:10:00;5.12;;;2.40;;
37065;SDS011;22981;43.080;25.550;2022-10-29T15:12:38;5.08;;;2.40;;
37065;SDS011;22981;43.080;25.550;2022-10-29T15:15:26;3.27;;;2.40;;
37065;SDS011;22981;43.080;25.550;2022-10-29T15:20:42;8.43;;;2.20;;
37065;SDS011;22981;43.080;25.550;2022-10-29T15:25:46;4.97;;;2.90;;
37065;SDS011;22981;43.080;25.550;2022-10-29T15:28:25;8.30;;;5.25;;
37065;SDS011;22981;43.080;25.550;2022-10-29T15:30:52;13.05;;;10.03;;
37065;SDS011;22981;43.080;25.550;2022-10-29T15:33:27;9.43;;;7.97;;
37065;SDS011;22981;43.080;25.550;2022-10-29T15:35:56;12.60;;;9.05;;
37065;SDS011;22981;43.080;25.550;2022-10-29T15:43:50;7.80;;;4.10;;
37065;SDS011;22981;43.080;25.550;2022-10-29T15:46:21;5.05;;;3.20;;
37065;SDS011;22981;43.080;25.550;2022-10-29T15:48:51;20.72;;;10.15;;
37065;SDS011;22981;43.080;25.550;2022-10-29T15:51:28;85.10;;;38.15;;
37065;SDS011;22981;43.080;25.550;2022-10-29T15:53:54;182.30;;;74.50;;
37065;SDS011;22981;43.080;25.550;2022-10-29T15:56:23;213.22;;;89.28;;
37065;SDS011;22981;43.080;25.550;2022-10-29T15:58:51;415.95;;;162.32;;
37065;SDS011;22981;43.080;25.550;2022-10-29T16:01:21;718.97;;;317.85;;
37065;SDS011;22981;43.080;25.550;2022-10-29T16:03:48;493.65;;;211.50;;
37065;SDS011;22981;43.080;25.550;2022-10-29T16:06:16;458.10;;;205.95;;
37065;SDS011;22981;43.080;25.550;2022-10-29T16:08:48;157.52;;;65.72;;
37065;SDS011;22981;43.080;25.550;2022-10-29T16:11:19;98.12;;;41.20;;
37065;SDS011;22981;43.080;25.550;2022-10-29T16:13:48;86.63;;;39.08;;
37065;SDS011;22981;43.080;25.550;2022-10-29T16:16:17;181.20;;;72.42;;
37065;SDS011;22981;43.080;25.550;2022-10-29T16:18:47;237.08;;;87.90;;
37065;SDS011;22981;43.080;25.550;2022-10-29T16:21:16;179.82;;;63.17;;
37065;SDS011;22981;43.080;25.550;2022-10-29T16:23:46;167.10;;;56.77;;
37065;SDS011;22981;43.080;25.550;2022-10-29T16:26:16;96.40;;;35.40;;
37065;SDS011;22981;43.080;25.550;2022-10-29T16:28:46;43.42;;;19.95;;
37065;SDS011;22981;43.080;25.550;2022-10-29T16:31:15;247.52;;;89.10;;
37065;SDS011;22981;43.080;25.550;2022-10-29T16:33:50;151.22;;;58.50;;
37065;SDS011;22981;43.080;25.550;2022-10-29T16:36:20;181.55;;;80.03;;
37065;SDS011;22981;43.080;25.550;2022-10-29T16:38:47;148.00;;;70.17;;
37065;SDS011;22981;43.080;25.550;2022-10-29T16:41:16;125.27;;;58.73;;
37065;SDS011;22981;43.080;25.550;2022-10-29T16:43:45;129.82;;;61.80;;
37065;SDS011;22981;43.080;25.550;2022-10-29T16:46:13;107.12;;;53.70;;
37065;SDS011;22981;43.080;25.550;2022-10-29T16:48:41;86.22;;;41.98;;
37065;SDS011;22981;43.080;25.550;2022-10-29T16:51:10;68.20;;;29.45;;
37065;SDS011;22981;43.080;25.550;2022-10-29T16:53:37;29.00;;;15.98;;
37065;SDS011;22981;43.080;25.550;2022-10-29T16:56:05;20.30;;;11.25;;
37065;SDS011;22981;43.080;25.550;2022-10-29T16:58:33;18.62;;;9.58;;
37065;SDS011;22981;43.080;25.550;2022-10-29T17:01:03;16.77;;;9.93;;
37065;SDS011;22981;43.080;25.550;2022-10-29T17:03:32;21.68;;;11.08;;
37065;SDS011;22981;43.080;25.550;2022-10-29T17:06:09;23.52;;;10.55;;
37065;SDS011;22981;43.080;25.550;2022-10-29T17:08:33;96.28;;;36.03;;
37065;SDS011;22981;43.080;25.550;2022-10-29T17:11:03;162.40;;;61.33;;
37065;SDS011;22981;43.080;25.550;2022-10-29T17:13:33;179.72;;;65.57;;
37065;SDS011;22981;43.080;25.550;2022-10-29T17:16:05;91.28;;;39.70;;
37065;SDS011;22981;43.080;25.550;2022-10-29T17:18:38;67.08;;;28.65;;
37065;SDS011;22981;43.080;25.550;2022-10-29T17:21:06;73.20;;;30.60;;
37065;SDS011;22981;43.080;25.550;2022-10-29T17:23:33;78.60;;;31.07;;
37065;SDS011;22981;43.080;25.550;2022-10-29T17:26:01;61.63;;;28.10;;
37065;SDS011;22981;43.080;25.550;2022-10-29T17:28:30;47.25;;;24.05;;